createdAt,value
2018-08-19T00:02:19.945Z,77.95
2018-08-19T00:05:03.069Z,78.16
2018-08-19T00:07:30.317Z,78.62
2018-08-19T00:09:58.119Z,78.69
2018-08-19T00:12:36.202Z,78.39
2018-08-19T00:15:04.578Z,78.27
2018-08-19T00:17:32.045Z,78.19
2018-08-19T00:19:59.345Z,77.91
2018-08-19T00:22:26.641Z,78.34
2018-08-19T00:24:54.021Z,78.12
2018-08-19T00:27:21.703Z,78.02
2018-08-19T00:29:49.860Z,78.51
2018-08-19T00:32:17.142Z,78.38
2018-08-19T00:34:45.754Z,78.57
2018-08-19T00:37:13.123Z,78.37
2018-08-19T00:39:40.760Z,78.20
2018-08-19T00:42:08.165Z,78.34
2018-08-19T00:44:35.645Z,78.79
2018-08-19T00:47:03.263Z,78.39
2018-08-19T00:49:30.552Z,78.56
2018-08-19T00:51:59.001Z,78.98
2018-08-19T00:54:27.592Z,79.03
2018-08-19T00:56:55.875Z,78.88
2018-08-19T00:59:23.462Z,78.81
2018-08-19T01:01:50.796Z,78.56
2018-08-19T01:04:18.212Z,78.83
2018-08-19T01:06:51.423Z,78.41
2018-08-19T01:09:19.425Z,78.73
2018-08-19T01:11:47.452Z,79.06
2018-08-19T01:14:15.480Z,79.36
2018-08-19T01:16:42.852Z,79.01
2018-08-19T01:19:10.985Z,78.92
2018-08-19T01:21:38.442Z,78.78
2018-08-19T01:24:11.334Z,78.94
2018-08-19T01:26:40.858Z,78.96
2018-08-19T01:29:09.620Z,79.08
2018-08-19T01:31:37.415Z,79.31
2018-08-19T01:34:10.136Z,79.22
2018-08-19T01:36:37.793Z,79.18
2018-08-19T01:39:07.133Z,79.40
2018-08-19T01:41:35.749Z,79.59
2018-08-19T01:44:06.790Z,79.58
2018-08-19T01:46:36.398Z,79.59
2018-08-19T01:49:03.800Z,79.56
2018-08-19T01:51:31.524Z,79.81
2018-08-19T01:54:04.360Z,79.98
2018-08-19T01:56:31.765Z,79.58
2018-08-19T01:58:59.835Z,79.60
2018-08-19T02:01:40.926Z,79.96
2018-08-19T02:04:08.505Z,79.66
2018-08-19T02:06:36.035Z,79.90
2018-08-19T02:09:04.608Z,80.15
2018-08-19T02:11:32.322Z,80.14
2018-08-19T02:14:00.420Z,80.50
2018-08-19T02:16:28.085Z,80.38
2018-08-19T02:18:55.723Z,80.83
2018-08-19T02:21:23.615Z,80.67
2018-08-19T02:23:51.141Z,80.82
2018-08-19T02:26:23.772Z,80.58
2018-08-19T02:28:51.385Z,81.17
2018-08-19T02:31:18.623Z,81.17
2018-08-19T02:33:45.927Z,81.40
2018-08-19T02:36:14.124Z,81.37
2018-08-19T02:38:41.679Z,81.40
2018-08-19T02:41:09.018Z,81.91
2018-08-19T02:43:44.111Z,82.14
2018-08-19T02:46:11.536Z,81.61
2018-08-19T02:48:46.745Z,82.41
2018-08-19T02:51:15.344Z,82.07
2018-08-19T02:53:44.600Z,82.43
2018-08-19T02:56:12.622Z,81.70
2018-08-19T02:58:41.301Z,82.33
2018-08-19T03:01:08.840Z,82.78
2018-08-19T03:03:36.446Z,82.74
2018-08-19T03:06:04.417Z,82.73
2018-08-19T03:08:32.084Z,83.21
2018-08-19T03:11:00.471Z,83.21
2018-08-19T03:13:27.877Z,83.25
2018-08-19T03:15:56.264Z,83.00
2018-08-19T03:18:23.932Z,83.50
2018-08-19T03:20:51.289Z,83.33
2018-08-19T03:23:18.626Z,83.32
2018-08-19T03:25:45.917Z,83.33
2018-08-19T03:28:13.245Z,83.59
2018-08-19T03:30:47.046Z,83.69
2018-08-19T03:33:14.357Z,84.23
2018-08-19T03:35:42.393Z,83.84
2018-08-19T03:38:12.919Z,84.12
2018-08-19T03:40:40.237Z,84.23
2018-08-19T03:43:08.081Z,84.56
2018-08-19T03:45:35.331Z,84.41
2018-08-19T03:48:02.657Z,84.47
2018-08-19T03:50:30.079Z,84.76
2018-08-19T03:52:57.393Z,84.66
2018-08-19T03:55:26.951Z,84.59
2018-08-19T03:57:58.124Z,84.66
2018-08-19T04:00:26.664Z,84.26
2018-08-19T04:02:54.143Z,85.24
2018-08-19T04:05:38.451Z,85.04
2018-08-19T04:08:06.729Z,85.43
2018-08-19T04:10:34.108Z,85.33
2018-08-19T04:13:01.400Z,85.79
2018-08-19T04:15:29.343Z,85.45
2018-08-19T04:17:56.605Z,85.34
2018-08-19T04:20:23.946Z,85.77
2018-08-19T04:22:51.237Z,85.52
2018-08-19T04:25:23.085Z,85.78
2018-08-19T04:27:50.479Z,85.38
2018-08-19T04:30:17.859Z,85.64
2018-08-19T04:32:45.146Z,85.90
2018-08-19T04:35:12.904Z,85.67
2018-08-19T04:37:40.202Z,86.13
2018-08-19T04:40:07.621Z,86.09
2018-08-19T04:42:34.936Z,85.72
2018-08-19T04:45:02.237Z,85.96
2018-08-19T04:47:31.445Z,86.10
2018-08-19T04:49:58.863Z,86.16
2018-08-19T04:52:26.287Z,86.37
2018-08-19T04:54:54.968Z,86.66
2018-08-19T04:57:22.667Z,86.43
2018-08-19T04:59:50.076Z,86.74
2018-08-19T05:02:18.226Z,86.39
2018-08-19T05:04:45.467Z,86.30
2018-08-19T05:07:13.445Z,86.69
2018-08-19T05:09:40.987Z,86.79
2018-08-19T05:12:08.475Z,86.86
2018-08-19T05:14:36.007Z,86.32
2018-08-19T05:17:03.266Z,86.15
2018-08-19T05:19:30.594Z,86.63
2018-08-19T05:22:03.861Z,86.39
2018-08-19T05:24:31.996Z,86.32
2018-08-19T05:27:04.249Z,86.02
2018-08-19T05:29:31.773Z,86.42
2018-08-19T05:31:59.084Z,86.53
2018-08-19T05:34:32.838Z,86.20
2018-08-19T05:37:00.571Z,85.99
2018-08-19T05:39:28.527Z,85.93
2018-08-19T05:42:08.956Z,85.88
2018-08-19T05:44:37.652Z,86.23
2018-08-19T05:47:08.968Z,86.59
2018-08-19T05:49:37.710Z,86.17
2018-08-19T05:52:11.085Z,86.17
2018-08-19T05:54:44.555Z,86.63
2018-08-19T05:57:12.245Z,85.86
2018-08-19T05:59:39.697Z,85.89
2018-08-19T06:02:07.016Z,85.70
2018-08-19T06:04:34.816Z,85.76
2018-08-19T06:07:04.706Z,85.76
2018-08-19T06:09:33.008Z,85.54
2018-08-19T06:12:00.986Z,85.93
2018-08-19T06:14:28.562Z,85.48
2018-08-19T06:16:55.897Z,85.42
2018-08-19T06:19:23.227Z,85.34
2018-08-19T06:21:50.890Z,85.45
2018-08-19T06:24:19.487Z,85.63
2018-08-19T06:26:46.810Z,85.03
2018-08-19T06:29:14.115Z,85.02
2018-08-19T06:31:41.419Z,84.15
2018-08-19T06:34:08.720Z,84.79
2018-08-19T06:36:36.240Z,84.19
2018-08-19T06:39:04.397Z,84.05
2018-08-19T06:41:31.957Z,84.29
2018-08-19T06:43:59.271Z,84.82
2018-08-19T06:46:26.553Z,84.88
2018-08-19T06:48:54.067Z,84.11
2018-08-19T06:51:21.370Z,84.12
2018-08-19T06:53:48.656Z,84.63
2018-08-19T06:56:16.066Z,84.42
2018-08-19T06:58:43.309Z,84.27
2018-08-19T07:01:10.746Z,84.52
2018-08-19T07:03:42.880Z,84.64
2018-08-19T07:06:10.824Z,85.43
2018-08-19T07:08:38.099Z,85.50
2018-08-19T07:11:05.558Z,85.48
2018-08-19T07:13:32.845Z,86.11
2018-08-19T07:16:00.340Z,86.16
2018-08-19T07:18:27.587Z,86.23
2018-08-19T07:20:55.002Z,87.04
2018-08-19T07:23:22.365Z,86.86
2018-08-19T07:25:49.631Z,86.98
2018-08-19T07:28:17.638Z,87.25
2018-08-19T07:30:45.289Z,87.98
2018-08-19T07:33:13.110Z,87.91
2018-08-19T07:35:40.514Z,87.73
2018-08-19T07:38:08.502Z,87.49
2018-08-19T07:40:35.807Z,87.35
2018-08-19T07:43:03.061Z,87.61
2018-08-19T07:45:30.696Z,87.49
2018-08-19T07:47:58.100Z,87.61
2018-08-19T07:50:25.723Z,87.37
2018-08-19T07:52:53.602Z,87.15
2018-08-19T07:55:21.022Z,86.80
2018-08-19T07:57:48.530Z,87.69
2018-08-19T08:00:16.928Z,86.70
2018-08-19T08:02:44.286Z,87.26
2018-08-19T08:05:11.590Z,86.84
2018-08-19T08:07:44.757Z,86.71
2018-08-19T08:10:12.073Z,86.70
2018-08-19T08:12:39.444Z,85.79
2018-08-19T08:15:07.126Z,86.60
2018-08-19T08:17:34.694Z,86.31
2018-08-19T08:20:03.044Z,86.57
2018-08-19T08:22:31.121Z,86.44
2018-08-19T08:24:58.632Z,86.72
2018-08-19T08:27:26.248Z,86.84
2018-08-19T08:29:53.705Z,87.00
2018-08-19T08:32:21.761Z,87.00
2018-08-19T08:34:49.520Z,87.02
2018-08-19T08:37:16.972Z,85.86
2018-08-19T08:39:44.348Z,85.86
2018-08-19T08:42:11.988Z,85.91
2018-08-19T08:44:39.279Z,86.23
2018-08-19T08:47:09.342Z,86.52
2018-08-19T08:49:42.254Z,85.55
2018-08-19T08:52:30.154Z,85.83
2018-08-19T08:55:00.092Z,85.40
2018-08-19T08:57:27.456Z,84.69
2018-08-19T08:59:54.966Z,84.32
2018-08-19T09:02:22.497Z,84.37
2018-08-19T09:04:50.958Z,84.32
2018-08-19T09:07:18.550Z,83.81
2018-08-19T09:09:46.557Z,83.34
2018-08-19T09:12:14.503Z,83.52
2018-08-19T09:14:42.569Z,83.52
2018-08-19T09:17:10.254Z,82.51
2018-08-19T09:19:37.899Z,82.00
2018-08-19T09:22:05.406Z,81.18
2018-08-19T09:24:32.721Z,80.77
2018-08-19T09:27:00.066Z,80.89
2018-08-19T09:29:27.542Z,80.50
2018-08-19T09:31:55.225Z,80.14
2018-08-19T09:34:22.821Z,80.20
2018-08-19T09:36:50.386Z,80.20
2018-08-19T09:39:18.432Z,79.68
2018-08-19T09:41:45.934Z,79.33
2018-08-19T09:44:13.340Z,78.74
2018-08-19T09:46:40.793Z,78.40
2018-08-19T09:49:08.515Z,78.31
2018-08-19T09:51:35.881Z,78.27
2018-08-19T09:54:03.326Z,78.02
2018-08-19T09:56:36.441Z,77.01
2018-08-19T09:59:05.034Z,76.15
2018-08-19T10:01:38.062Z,77.25
2018-08-19T10:04:09.011Z,76.01
2018-08-19T10:06:36.444Z,75.62
2018-08-19T10:09:06.203Z,74.63
2018-08-19T10:11:33.538Z,74.10
2018-08-19T10:14:03.474Z,72.93
2018-08-19T10:16:39.529Z,73.06
2018-08-19T10:19:06.856Z,71.43
2018-08-19T10:21:34.473Z,70.78
2018-08-19T10:24:12.034Z,71.33
2018-08-19T10:26:39.416Z,70.71
2018-08-19T10:29:06.973Z,70.41
2018-08-19T10:31:34.307Z,71.18
2018-08-19T10:34:01.682Z,71.23
2018-08-19T10:36:29.081Z,71.09
2018-08-19T10:38:56.493Z,71.87
2018-08-19T10:41:23.917Z,71.66
2018-08-19T10:43:51.218Z,71.20
2018-08-19T10:46:18.672Z,71.95
2018-08-19T10:48:46.017Z,70.56
2018-08-19T10:51:13.413Z,70.07
2018-08-19T10:53:42.589Z,70.95
2018-08-19T10:56:09.903Z,70.26
2018-08-19T10:58:39.491Z,70.84
2018-08-19T11:01:06.912Z,70.49
2018-08-19T11:03:36.259Z,69.52
2018-08-19T11:06:03.725Z,70.39
2018-08-19T11:08:31.150Z,70.45
2018-08-19T11:10:58.851Z,69.80
2018-08-19T11:13:26.290Z,70.18
2018-08-19T11:15:54.970Z,70.36
2018-08-19T11:18:25.727Z,70.33
2018-08-19T11:20:55.902Z,69.24
2018-08-19T11:23:24.390Z,68.83
2018-08-19T11:25:52.685Z,68.76
2018-08-19T11:28:32.007Z,69.23
2018-08-19T11:30:59.297Z,69.02
2018-08-19T11:33:37.981Z,69.42
2018-08-19T11:36:05.554Z,69.45
2018-08-19T11:38:32.963Z,68.65
2018-08-19T11:41:02.300Z,68.36
2018-08-19T11:43:29.834Z,68.69
2018-08-19T11:45:57.401Z,68.11
2018-08-19T11:48:24.798Z,68.20
2018-08-19T11:53:18.990Z,64.17
2018-08-19T11:55:47.015Z,60.48
2018-08-19T11:58:30.679Z,57.85
2018-08-19T12:01:00.405Z,57.81
2018-08-19T12:03:28.427Z,51.98
2018-08-19T12:05:55.881Z,56.88
2018-08-19T12:08:23.418Z,56.32
2018-08-19T12:10:55.647Z,61.57
2018-08-19T12:13:24.115Z,59.80
2018-08-19T12:15:51.470Z,60.43
2018-08-19T12:18:18.824Z,49.58
2018-08-19T12:20:46.269Z,56.33
2018-08-19T12:23:13.603Z,60.49
2018-08-19T12:25:41.171Z,63.25
2018-08-19T12:28:08.646Z,53.46
2018-08-19T12:30:35.994Z,59.53
2018-08-19T12:33:14.524Z,60.07
2018-08-19T12:35:41.923Z,58.85
2018-08-19T12:38:09.309Z,56.96
2018-08-19T12:40:41.402Z,59.52
2018-08-19T12:43:08.879Z,61.69
2018-08-19T12:45:36.445Z,61.24
2018-08-19T12:48:03.802Z,58.79
2018-08-19T12:50:31.238Z,59.06
2018-08-19T12:52:58.654Z,57.45
2018-08-19T12:55:26.269Z,57.11
2018-08-19T12:58:01.983Z,56.44
2018-08-19T13:00:29.818Z,55.96
2018-08-19T13:02:57.393Z,53.96
2018-08-19T13:05:24.973Z,57.59
2018-08-19T13:07:52.716Z,56.10
2018-08-19T13:10:21.299Z,55.76
2018-08-19T13:12:56.014Z,55.75
2018-08-19T13:15:24.749Z,57.26
2018-08-19T13:17:52.463Z,57.98
2018-08-19T13:20:19.827Z,57.18
2018-08-19T13:23:04.443Z,57.63
2018-08-19T13:25:33.130Z,58.42
2018-08-19T13:28:00.538Z,58.45
2018-08-19T13:30:28.078Z,59.45
2018-08-19T13:32:55.464Z,60.18
2018-08-19T13:35:23.376Z,61.83
2018-08-19T13:37:51.239Z,62.16
2018-08-19T13:40:18.631Z,62.29
2018-08-19T13:42:47.275Z,61.78
2018-08-19T13:45:17.596Z,63.11
2018-08-19T13:47:46.211Z,63.65
2018-08-19T13:50:13.769Z,62.53
2018-08-19T13:52:41.716Z,63.17
2018-08-19T13:55:11.403Z,62.17
2018-08-19T13:57:38.910Z,62.29
2018-08-19T14:00:12.403Z,63.31
2018-08-19T14:02:39.805Z,63.85
2018-08-19T14:05:07.719Z,64.66
2018-08-19T14:07:35.284Z,63.60
2018-08-19T14:10:02.776Z,64.72
2018-08-19T14:12:30.169Z,64.52
2018-08-19T14:14:57.903Z,64.59
2018-08-19T14:17:25.781Z,65.85
2018-08-19T14:19:53.936Z,65.66
2018-08-19T14:22:21.570Z,65.65
2018-08-19T14:24:49.182Z,65.48
2018-08-19T14:27:16.587Z,65.17
2018-08-19T14:29:44.506Z,65.84
2018-08-19T14:32:27.586Z,66.45
2018-08-19T14:34:55.012Z,65.99
2018-08-19T14:37:23.122Z,65.62
2018-08-19T14:39:50.819Z,66.61
2018-08-19T14:42:18.255Z,67.23
2018-08-19T14:44:46.644Z,67.75
2018-08-19T14:47:14.246Z,68.82
2018-08-19T14:49:41.932Z,70.20
2018-08-19T14:52:10.224Z,70.97
2018-08-19T14:54:38.394Z,70.78
2018-08-19T14:57:05.838Z,71.04
2018-08-19T14:59:33.401Z,71.28
2018-08-19T15:02:00.745Z,72.42
2018-08-19T15:04:28.114Z,73.67
2018-08-19T15:06:56.204Z,73.89
2018-08-19T15:09:30.162Z,74.57
2018-08-19T15:12:08.170Z,74.74
2018-08-19T15:14:35.537Z,74.47
2018-08-19T15:17:04.966Z,75.14
2018-08-19T15:19:32.489Z,74.46
2018-08-19T15:21:59.864Z,74.90
2018-08-19T15:24:27.572Z,74.79
2018-08-19T15:26:55.760Z,74.86
2018-08-19T15:29:28.221Z,75.58
2018-08-19T15:31:57.052Z,75.38
2018-08-19T15:34:25.940Z,75.18
2018-08-19T15:36:54.162Z,76.26
2018-08-19T15:39:21.825Z,76.02
2018-08-19T15:41:49.542Z,75.82
2018-08-19T15:44:17.329Z,76.51
2018-08-19T15:46:45.883Z,76.00
2018-08-19T15:49:13.481Z,76.53
2018-08-19T15:51:41.996Z,76.76
2018-08-19T15:54:10.429Z,77.19
2018-08-19T15:56:39.053Z,76.01
2018-08-19T15:59:09.795Z,77.55
2018-08-19T16:01:37.966Z,77.17
2018-08-19T16:04:12.817Z,76.62
2018-08-19T16:06:41.272Z,76.06
2018-08-19T16:09:11.237Z,75.76
2018-08-19T16:11:38.557Z,75.35
2018-08-19T16:14:13.931Z,75.90
2018-08-19T16:16:41.316Z,75.30
2018-08-19T16:19:10.821Z,75.37
2018-08-19T16:21:38.894Z,75.97
2018-08-19T16:24:06.935Z,76.23
2018-08-19T16:26:34.670Z,76.75
2018-08-19T16:29:02.339Z,77.18
2018-08-19T16:31:30.835Z,76.85
2018-08-19T16:33:59.283Z,76.52
2018-08-19T16:36:27.099Z,76.99
2018-08-19T16:38:55.345Z,77.90
2018-08-19T16:41:24.603Z,77.84
2018-08-19T16:43:52.969Z,77.13
2018-08-19T16:46:21.305Z,76.85
2018-08-19T16:48:49.994Z,76.87
2018-08-19T16:51:17.843Z,76.74
2018-08-19T16:53:45.309Z,76.14
2018-08-19T16:56:13.009Z,75.79
2018-08-19T16:58:41.300Z,76.52
2018-08-19T17:01:09.540Z,76.60
2018-08-19T17:03:38.260Z,77.09
2018-08-19T17:06:10.051Z,77.75
2018-08-19T17:08:37.826Z,78.12
2018-08-19T17:11:05.598Z,78.09
2018-08-19T17:13:32.955Z,77.86
2018-08-19T17:16:01.021Z,78.00
2018-08-19T17:18:30.636Z,79.21
2018-08-19T17:20:58.570Z,78.86
2018-08-19T17:23:26.275Z,79.65
2018-08-19T17:25:53.572Z,80.06
2018-08-19T17:28:23.126Z,80.42
2018-08-19T17:30:52.614Z,80.15
2018-08-19T17:33:28.115Z,80.91
2018-08-19T17:35:55.673Z,80.72
2018-08-19T17:38:23.081Z,80.90
2018-08-19T17:40:52.171Z,80.27
2018-08-19T17:43:27.414Z,81.11
2018-08-19T17:45:59.741Z,81.83
2018-08-19T17:48:27.088Z,81.90
2018-08-19T17:50:56.216Z,81.99
2018-08-19T17:53:23.838Z,81.47
2018-08-19T17:55:51.520Z,82.51
2018-08-19T17:58:18.838Z,82.44
2018-08-19T18:00:46.535Z,82.19
2018-08-19T18:03:14.473Z,82.49
2018-08-19T18:05:42.092Z,82.63
2018-08-19T18:08:09.742Z,84.01
2018-08-19T18:10:37.795Z,83.64
2018-08-19T18:13:05.706Z,83.61
2018-08-19T18:15:33.737Z,83.42
2018-08-19T18:18:05.318Z,83.85
2018-08-19T18:20:37.472Z,83.72
2018-08-19T18:23:12.872Z,84.02
2018-08-19T18:25:41.317Z,84.53
2018-08-19T18:28:27.656Z,83.59
2018-08-19T18:31:14.366Z,84.53
2018-08-19T18:33:48.119Z,84.39
2018-08-19T18:36:15.696Z,84.71
2018-08-19T18:38:43.392Z,84.97
2018-08-19T18:41:18.016Z,84.69
2018-08-19T18:43:48.387Z,84.88
2018-08-19T18:46:15.759Z,85.19
2018-08-19T18:48:44.894Z,85.17
2018-08-19T18:51:12.536Z,85.10
2018-08-19T18:53:40.179Z,84.96
2018-08-19T18:56:07.948Z,85.69
2018-08-19T18:58:35.779Z,85.03
2018-08-19T19:01:03.479Z,85.60
2018-08-19T19:03:31.321Z,85.35
2018-08-19T19:05:59.036Z,85.55
2018-08-19T19:08:26.339Z,86.20
2018-08-19T19:11:00.324Z,86.01
2018-08-19T19:13:28.596Z,86.17
2018-08-19T19:15:56.148Z,86.44
2018-08-19T19:18:24.392Z,85.87
2018-08-19T19:20:57.555Z,86.23
2018-08-19T19:23:29.575Z,86.63
2018-08-19T19:25:57.245Z,86.43
2018-08-19T19:28:24.704Z,86.39
2018-08-19T19:31:00.896Z,86.02
2018-08-19T19:33:28.873Z,86.37
2018-08-19T19:36:02.417Z,86.53
2018-08-19T19:38:30.256Z,86.19
2018-08-19T19:41:02.189Z,86.04
2018-08-19T19:43:30.379Z,86.63
2018-08-19T19:45:57.959Z,86.83
2018-08-19T19:48:25.879Z,86.26
2018-08-19T19:50:53.192Z,85.71
2018-08-19T19:53:20.797Z,86.66
2018-08-19T19:55:48.191Z,86.73
2018-08-19T19:58:15.711Z,86.62
2018-08-19T20:00:53.663Z,86.27
2018-08-19T20:03:22.086Z,86.83
2018-08-19T20:05:50.729Z,86.60
2018-08-19T20:08:22.613Z,86.48
2018-08-19T20:10:50.625Z,86.78
2018-08-19T20:13:18.240Z,86.50
2018-08-19T20:15:45.983Z,87.00
2018-08-19T20:18:13.452Z,87.12
2018-08-19T20:20:40.981Z,87.08
2018-08-19T20:23:25.619Z,86.93
2018-08-19T20:25:55.442Z,86.83
2018-08-19T20:28:23.022Z,87.07
2018-08-19T20:30:50.544Z,86.78
2018-08-19T20:33:25.713Z,86.72
2018-08-19T20:35:53.555Z,87.29
2018-08-19T20:38:21.362Z,87.29
2018-08-19T20:40:49.047Z,87.05
2018-08-19T20:43:20.217Z,87.26
2018-08-19T20:45:47.726Z,87.24
2018-08-19T20:48:17.603Z,87.20
2018-08-19T20:50:45.826Z,87.01
2018-08-19T20:53:13.307Z,87.24
2018-08-19T20:55:40.706Z,86.43
2018-08-19T20:58:08.027Z,86.88
2018-08-19T21:00:35.816Z,87.28
2018-08-19T21:03:03.367Z,87.37
2018-08-19T21:05:30.943Z,87.26
2018-08-19T21:08:04.520Z,87.26
2018-08-19T21:10:31.825Z,87.04
2018-08-19T21:12:59.635Z,87.22
2018-08-19T21:15:32.166Z,87.13
2018-08-19T21:18:00.612Z,87.61
2018-08-19T21:20:28.073Z,87.64
2018-08-19T21:22:55.532Z,87.56
2018-08-19T21:25:22.893Z,87.21
2018-08-19T21:27:50.491Z,87.73
2018-08-19T21:30:17.908Z,87.67
2018-08-19T21:32:45.547Z,87.83
2018-08-19T21:35:13.872Z,87.56
2018-08-19T21:37:41.296Z,87.63
2018-08-19T21:40:08.817Z,87.72
2018-08-19T21:42:48.515Z,87.71
2018-08-19T21:45:15.835Z,87.42
2018-08-19T21:47:43.125Z,87.67
2018-08-19T21:50:10.531Z,87.37
2018-08-19T21:53:17.586Z,87.17
2018-08-19T21:55:46.178Z,87.55
2018-08-19T21:58:13.636Z,88.07
2018-08-19T22:00:44.042Z,87.76
2018-08-19T22:03:20.727Z,88.42
2018-08-19T22:05:49.390Z,88.29
2018-08-19T22:08:17.970Z,87.92
2018-08-19T22:10:46.663Z,88.16
2018-08-19T22:13:14.107Z,88.34
2018-08-19T22:15:42.592Z,87.94
2018-08-19T22:18:12.889Z,88.55
2018-08-19T22:20:50.597Z,88.03
2018-08-19T22:23:17.988Z,88.69
2018-08-19T22:25:45.480Z,88.80
2018-08-19T22:28:13.794Z,88.98
2018-08-19T22:30:41.145Z,88.54
2018-08-19T22:33:08.518Z,88.87
2018-08-19T22:35:35.907Z,88.72
2018-08-19T22:38:07.533Z,89.07
2018-08-19T22:40:36.755Z,89.03
2018-08-19T22:43:04.741Z,89.09
2018-08-19T22:45:32.097Z,89.35
2018-08-19T22:47:59.534Z,89.28
2018-08-19T22:50:27.643Z,89.90
2018-08-19T22:52:54.977Z,90.37
2018-08-19T22:55:29.591Z,90.50
2018-08-19T22:58:13.914Z,90.31
2018-08-19T23:00:42.100Z,91.01
2018-08-19T23:03:09.491Z,90.13
2018-08-19T23:05:36.985Z,90.29
2018-08-19T23:08:04.645Z,90.34
2018-08-19T23:10:32.012Z,90.27
2018-08-19T23:13:05.698Z,90.67
2018-08-19T23:15:40.055Z,91.42
2018-08-19T23:18:07.468Z,91.09
2018-08-19T23:20:34.840Z,90.82
2018-08-19T23:23:02.286Z,91.18
2018-08-19T23:25:29.847Z,90.83
2018-08-19T23:27:57.223Z,91.15
2018-08-19T23:30:24.665Z,90.81
2018-08-19T23:32:52.867Z,91.01
2018-08-19T23:35:20.342Z,91.14
2018-08-19T23:37:47.697Z,91.73
2018-08-19T23:40:15.121Z,91.39
2018-08-19T23:42:42.795Z,91.64
2018-08-19T23:45:10.225Z,91.37
2018-08-19T23:47:37.627Z,91.40
2018-08-19T23:50:05.376Z,91.49
2018-08-19T23:52:32.680Z,91.49
2018-08-19T23:55:00.019Z,92.24
2018-08-19T23:57:28.072Z,91.71
2018-08-19T23:59:55.477Z,91.65
